createdAt,value
2022-11-13T00:04:20.555Z,100.00
2022-11-13T00:09:40.820Z,100.00
2022-11-13T00:15:02.128Z,100.00
2022-11-13T00:20:22.086Z,100.00
2022-11-13T00:25:42.422Z,100.00
2022-11-13T00:31:04.742Z,100.00
2022-11-13T00:36:27.317Z,100.00
2022-11-13T00:41:47.509Z,100.00
2022-11-13T00:47:07.703Z,100.00
2022-11-13T00:52:27.903Z,100.00
2022-11-13T00:57:48.126Z,100.00
2022-11-13T01:03:09.123Z,100.00
2022-11-13T01:08:29.327Z,100.00
2022-11-13T01:13:51.456Z,100.00
2022-11-13T01:19:11.639Z,100.00
2022-11-13T01:24:32.118Z,100.00
2022-11-13T01:29:52.605Z,100.00
2022-11-13T01:35:12.825Z,100.00
2022-11-13T01:40:33.093Z,100.00
2022-11-13T01:45:59.499Z,100.00
2022-11-13T01:51:31.570Z,100.00
2022-11-13T01:56:52.542Z,100.00
2022-11-13T02:02:12.701Z,100.00
2022-11-13T02:07:33.154Z,100.00
2022-11-13T02:12:53.516Z,100.00
2022-11-13T02:18:16.619Z,100.00
2022-11-13T02:24:00.367Z,100.00
2022-11-13T02:29:20.472Z,100.00
2022-11-13T02:34:40.808Z,100.00
2022-11-13T02:40:01.063Z,100.00
2022-11-13T02:45:21.626Z,100.00
2022-11-13T02:50:42.054Z,100.00
2022-11-13T02:56:02.055Z,100.00
2022-11-13T03:01:22.515Z,100.00
2022-11-13T03:06:42.797Z,100.00
2022-11-13T03:12:03.116Z,100.00
2022-11-13T03:17:23.353Z,100.00
2022-11-13T03:22:43.648Z,100.00
2022-11-13T03:28:03.992Z,100.00
2022-11-13T03:33:24.894Z,100.00
2022-11-13T03:38:45.365Z,100.00
2022-11-13T03:44:05.744Z,100.00
2022-11-13T03:49:25.951Z,100.00
2022-11-13T03:54:46.165Z,100.00
2022-11-13T04:00:07.024Z,100.00
2022-11-13T04:05:27.636Z,100.00
2022-11-13T04:10:47.543Z,100.00
2022-11-13T04:16:07.936Z,100.00
2022-11-13T04:21:28.576Z,100.00
2022-11-13T04:26:48.580Z,100.00
2022-11-13T04:32:08.946Z,100.00
2022-11-13T04:37:29.349Z,100.00
2022-11-13T04:42:49.550Z,100.00
2022-11-13T04:48:09.799Z,100.00
2022-11-13T04:53:29.979Z,100.00
2022-11-13T04:58:50.345Z,100.00
2022-11-13T05:04:15.041Z,100.00
2022-11-13T05:09:35.316Z,100.00
2022-11-13T05:14:55.560Z,100.00
2022-11-13T05:20:16.375Z,100.00
2022-11-13T05:25:36.381Z,100.00
2022-11-13T05:31:08.877Z,100.00
2022-11-13T05:36:28.814Z,100.00
2022-11-13T05:41:49.135Z,100.00
2022-11-13T05:47:09.386Z,100.00
2022-11-13T05:52:29.767Z,100.00
2022-11-13T05:57:50.018Z,100.00
2022-11-13T06:03:10.455Z,100.00
2022-11-13T06:08:31.232Z,100.00
2022-11-13T06:13:53.370Z,100.00
2022-11-13T06:19:13.675Z,100.00
2022-11-13T06:24:33.958Z,100.00
2022-11-13T06:29:54.140Z,100.00
2022-11-13T06:35:14.404Z,100.00
2022-11-13T06:40:34.647Z,100.00
2022-11-13T06:45:55.783Z,100.00
2022-11-13T06:51:20.203Z,100.00
2022-11-13T06:56:45.420Z,100.00
2022-11-13T07:02:05.971Z,100.00
2022-11-13T07:07:26.027Z,100.00
2022-11-13T07:12:50.634Z,100.00
2022-11-13T07:18:13.608Z,100.00
2022-11-13T07:23:37.029Z,100.00
2022-11-13T07:28:57.424Z,100.00
2022-11-13T07:34:17.820Z,100.00
2022-11-13T07:39:38.069Z,100.00
2022-11-13T07:44:58.471Z,100.00
2022-11-13T07:50:18.727Z,100.00
2022-11-13T07:55:38.934Z,100.00
2022-11-13T08:01:04.728Z,100.00
2022-11-13T08:06:27.664Z,100.00
2022-11-13T08:11:47.912Z,100.00
2022-11-13T08:17:07.847Z,100.00
2022-11-13T08:22:30.155Z,100.00
2022-11-13T08:27:53.001Z,100.00
2022-11-13T08:33:13.264Z,100.00
2022-11-13T08:38:33.438Z,100.00
2022-11-13T08:43:53.716Z,100.00
2022-11-13T08:49:13.992Z,100.00
2022-11-13T08:54:34.155Z,100.00
2022-11-13T08:59:54.414Z,100.00
2022-11-13T09:05:14.688Z,90.89
2022-11-13T09:10:35.037Z,89.18
2022-11-13T09:15:58.352Z,80.41
2022-11-13T09:21:18.775Z,74.77
2022-11-13T09:26:38.924Z,73.53
2022-11-13T09:31:59.142Z,80.53
2022-11-13T09:37:19.438Z,82.82
2022-11-13T09:42:41.240Z,76.54
2022-11-13T09:48:21.550Z,69.90
2022-11-13T09:53:41.853Z,63.76
2022-11-13T09:59:04.806Z,74.95
2022-11-13T10:04:40.356Z,66.18
2022-11-13T10:10:44.849Z,68.24
2022-11-13T10:16:27.949Z,68.09
2022-11-13T10:22:19.709Z,73.68
2022-11-13T10:27:39.874Z,66.59
2022-11-13T10:33:08.684Z,63.85
2022-11-13T10:38:39.040Z,62.80
2022-11-13T10:44:02.839Z,57.93
2022-11-13T10:49:29.141Z,54.75
2022-11-13T10:54:50.329Z,51.48
2022-11-13T11:00:21.534Z,47.84
2022-11-13T11:05:52.523Z,47.17
2022-11-13T11:11:36.115Z,53.15
2022-11-13T11:16:57.464Z,49.10
2022-11-13T11:22:22.401Z,50.94
2022-11-13T11:28:04.898Z,47.02
2022-11-13T11:33:36.699Z,49.42
2022-11-13T11:39:42.442Z,50.35
2022-11-13T11:45:30.219Z,50.29
2022-11-13T11:51:12.541Z,53.31
2022-11-13T11:56:37.169Z,53.83
2022-11-13T12:02:06.251Z,58.14
2022-11-13T12:07:47.232Z,52.81
2022-11-13T12:13:31.608Z,52.25
2022-11-13T12:19:24.212Z,57.48
2022-11-13T12:25:08.030Z,53.84
2022-11-13T12:30:42.543Z,53.00
2022-11-13T12:36:03.728Z,53.30
2022-11-13T12:41:45.284Z,53.07
2022-11-13T12:47:08.725Z,56.39
2022-11-13T12:52:28.682Z,59.45
2022-11-13T12:57:48.953Z,61.25
2022-11-13T13:03:12.233Z,61.43
2022-11-13T13:08:45.127Z,59.94
2022-11-13T13:14:21.772Z,57.42
2022-11-13T13:19:42.321Z,57.90
2022-11-13T13:25:22.321Z,62.14
2022-11-13T13:30:56.988Z,63.34
2022-11-13T13:36:29.464Z,63.53
2022-11-13T13:42:19.192Z,60.79
2022-11-13T13:47:45.343Z,61.32
2022-11-13T13:53:05.814Z,61.41
2022-11-13T13:58:44.952Z,63.83
2022-11-13T14:04:17.324Z,64.93
2022-11-13T14:09:37.401Z,64.80
2022-11-13T14:14:57.790Z,65.34
2022-11-13T14:20:19.217Z,67.99
2022-11-13T14:25:39.844Z,69.19
2022-11-13T14:31:06.976Z,71.68
2022-11-13T14:36:32.883Z,71.97
2022-11-13T14:41:58.940Z,75.05
2022-11-13T14:47:28.738Z,77.86
2022-11-13T14:53:07.357Z,79.63
2022-11-13T14:58:35.141Z,81.25
2022-11-13T15:03:55.466Z,83.32
2022-11-13T15:09:17.665Z,85.05
2022-11-13T15:14:41.408Z,86.99
2022-11-13T15:20:05.433Z,87.90
2022-11-13T15:25:29.445Z,87.85
2022-11-13T15:30:49.732Z,90.66
2022-11-13T15:36:10.113Z,91.59
2022-11-13T15:41:30.870Z,92.23
2022-11-13T15:46:51.226Z,92.46
2022-11-13T15:52:11.577Z,93.16
2022-11-13T15:57:31.788Z,94.12
2022-11-13T16:02:56.824Z,95.48
2022-11-13T16:08:17.124Z,96.30
2022-11-13T16:13:37.409Z,96.65
2022-11-13T16:19:00.353Z,99.44
2022-11-13T16:24:24.203Z,99.45
2022-11-13T16:29:44.985Z,100.00
2022-11-13T16:35:05.572Z,100.00
2022-11-13T16:40:26.817Z,100.00
2022-11-13T16:45:46.707Z,100.00
2022-11-13T16:51:06.938Z,100.00
2022-11-13T16:56:30.242Z,100.00
2022-11-13T17:01:55.132Z,100.00
2022-11-13T17:07:16.186Z,100.00
2022-11-13T17:12:36.536Z,100.00
2022-11-13T17:17:58.603Z,100.00
2022-11-13T17:23:18.968Z,100.00
2022-11-13T17:28:39.578Z,100.00
2022-11-13T17:33:59.711Z,100.00
2022-11-13T17:39:20.529Z,100.00
2022-11-13T17:44:40.958Z,100.00
2022-11-13T17:50:06.742Z,100.00
2022-11-13T17:55:27.587Z,100.00
2022-11-13T18:00:48.326Z,100.00
2022-11-13T18:06:13.242Z,100.00
2022-11-13T18:11:34.179Z,100.00
2022-11-13T18:16:54.076Z,100.00
2022-11-13T18:22:15.185Z,100.00
2022-11-13T18:27:36.383Z,100.00
2022-11-13T18:32:56.679Z,100.00
2022-11-13T18:38:16.788Z,100.00
2022-11-13T18:43:38.165Z,100.00
2022-11-13T18:48:59.327Z,100.00
2022-11-13T18:54:19.706Z,100.00
2022-11-13T18:59:39.991Z,100.00
2022-11-13T19:05:00.302Z,100.00
2022-11-13T19:10:22.250Z,100.00
2022-11-13T19:15:42.305Z,100.00
2022-11-13T19:21:12.711Z,100.00
2022-11-13T19:26:32.967Z,100.00
2022-11-13T19:31:54.841Z,100.00
2022-11-13T19:37:19.112Z,100.00
2022-11-13T19:42:41.954Z,100.00
2022-11-13T19:48:02.074Z,100.00
2022-11-13T19:53:22.398Z,100.00
2022-11-13T19:58:44.484Z,100.00
2022-11-13T20:04:05.681Z,100.00
2022-11-13T20:09:25.546Z,100.00
2022-11-13T20:14:45.800Z,100.00
2022-11-13T20:20:06.496Z,100.00
2022-11-13T20:25:28.501Z,100.00
2022-11-13T20:30:49.292Z,100.00
2022-11-13T20:36:10.034Z,100.00
2022-11-13T20:41:30.508Z,100.00
2022-11-13T20:46:50.732Z,100.00
2022-11-13T20:52:12.197Z,100.00
2022-11-13T20:57:36.733Z,100.00
2022-11-13T21:03:00.202Z,100.00
2022-11-13T21:08:20.557Z,100.00
2022-11-13T21:13:40.877Z,100.00
2022-11-13T21:19:01.293Z,100.00
2022-11-13T21:24:21.533Z,100.00
2022-11-13T21:29:41.840Z,95.82
2022-11-13T21:35:02.071Z,93.90
2022-11-13T21:40:22.590Z,93.59
2022-11-13T21:45:42.534Z,95.23
2022-11-13T21:51:02.789Z,95.96
2022-11-13T21:56:24.491Z,98.75
2022-11-13T22:01:44.647Z,98.01
2022-11-13T22:07:04.732Z,100.00
2022-11-13T22:12:25.023Z,99.03
2022-11-13T22:17:45.360Z,100.00
2022-11-13T22:23:05.975Z,100.00
2022-11-13T22:28:26.011Z,100.00
2022-11-13T22:33:48.939Z,100.00
2022-11-13T22:39:11.717Z,100.00
2022-11-13T22:44:51.575Z,100.00
2022-11-13T22:50:12.317Z,100.00
2022-11-13T22:55:32.639Z,100.00
2022-11-13T23:00:53.340Z,100.00
2022-11-13T23:06:16.244Z,100.00
2022-11-13T23:11:41.213Z,100.00
2022-11-13T23:17:01.270Z,100.00
2022-11-13T23:22:21.560Z,100.00
2022-11-13T23:27:41.897Z,100.00
2022-11-13T23:33:02.055Z,100.00
2022-11-13T23:38:22.541Z,100.00
2022-11-13T23:49:23.102Z,100.00
2022-11-13T23:54:43.492Z,100.00
